• Join FlightAware (Why Join?)
  • Login
  • US Flag 
05:52PM EDT


 

Airport Tracker/Info


-or-


 

Live Flight TrackerFlight Track Log ✈ EJA831 ✈ 21-Jul-2013 ✈ KFWA - KDAL

Flight Track Log - Related Links

Times and Time Zones

All times are in EDT time to prevent confusion due to time zone crossing. See the EJA831 flight status page for this flight to view local times or setup timezone preferences in your user account.

Time Position Orientation Groundspeed Altitude Reporting Facility
EDT Latitude Longitude Course Direction KTS MPH feet Rate Location/Type
04:41PM 40.9350 -85.1381 217° Southwest 210 242 4,300  Level Chicago Center
04:42PM 40.8767 -85.1925 215° Southwest 274 315 6,800 2,760 Climbing Chicago Center
04:43PM 40.8147 -85.2614 220° Southwest 287 330 10,100 2,940 Climbing Chicago Center
04:44PM 40.7508 -85.3319 220° Southwest 295 339 12,900 3,120 Climbing Chicago Center
04:45PM 40.6733 -85.4228 222° Southwest 307 353 16,600 3,060 Climbing Chicago Center
04:47PM 40.4958 -85.6709 217° Southwest  Level FlightAware Approximate
04:47PM 40.6097 -85.4942 220° Southwest 298 343 19,300  Level Chicago Center
04:48PM 40.5467 -85.5639 220° Southwest 299 344 21,500 1,740 Climbing Chicago Center
04:49PM 40.4806 -85.6356 220° Southwest 308 354 23,000 720 Climbing Chicago Center
04:50PM 40.4083 -85.7175 221° Southwest 336 387 23,100 600 Climbing Chicago Center
04:51PM 40.3308 -85.8042 220° Southwest 359 413 24,300 1,380 Climbing Chicago Center
04:52PM 40.2400 -85.9036 220° Southwest 359 413 26,000 1,440 Climbing Chicago Center
04:53PM 40.1683 -85.9828 220° Southwest 345 397 27,400 1,320 Climbing Chicago Center
04:54PM 40.0981 -86.0597 220° Southwest 335 386 28,800 1,320 Climbing Chicago Center
04:55PM 40.0267 -86.1375 220° Southwest 335 386 30,200 1,320 Climbing Chicago Center
04:56PM 39.9431 -86.2289 220° Southwest 328 377 31,800 1,200 Climbing Indianapolis Center
04:57PM 39.8750 -86.3056 221° Southwest 328 377 32,900 1,020 Climbing Indianapolis Center
04:58PM 39.7978 -86.3811 217° Southwest 342 394 34,000 1,080 Climbing Indianapolis Center
04:59PM 39.7028 -86.4531 210° Southwest 348 400 35,200 1,080 Climbing Indianapolis Center
05:00PM 39.6217 -86.5144 210° Southwest 344 396 36,300 1,080 Climbing Indianapolis Center
05:01PM 39.5397 -86.5758 210° Southwest 343 395 37,500 1,020 Climbing Indianapolis Center
05:02PM 39.4586 -86.6375 210° Southwest 341 392 38,400 720 Climbing Indianapolis Center
05:03PM 39.3767 -86.6992 210° Southwest 342 394 39,000 660 Climbing Indianapolis Center
05:04PM 39.2753 -86.7756 210° Southwest 354 407 39,800 480 Climbing Indianapolis Center
05:05PM 39.1883 -86.8397 210° Southwest 359 413 40,000 60 Climbing Indianapolis Center
05:06PM 39.1056 -86.9008 210° Southwest 370 426 40,000  Level Indianapolis Center
05:07PM 38.9950 -86.9842 210° Southwest 382 440 40,000  Level Indianapolis Center
05:08PM 38.9006 -87.0550 210° Southwest 390 449 40,000  Level Indianapolis Center
05:09PM 38.8058 -87.1233 209° Southwest 391 450 40,000  Level Indianapolis Center
05:10PM 38.7117 -87.1931 210° Southwest 392 451 40,000  Level Indianapolis Center
05:11PM 38.6178 -87.2628 210° Southwest 393 452 40,000  Level Indianapolis Center
05:12PM 38.5231 -87.3328 210° Southwest 395 455 40,000  Level Indianapolis Center
05:13PM 38.4272 -87.4025 210° Southwest 398 458 40,000  Level Indianapolis Center
05:14PM 38.3122 -87.4861 210° Southwest 399 459 40,000  Level Indianapolis Center
05:16PM 38.2161 -87.5558 210° Southwest 400 460 40,000  Level Indianapolis Center
05:17PM 38.1189 -87.6250 209° Southwest 402 463 40,000  Level Indianapolis Center
05:18PM 38.0233 -87.6950 210° Southwest 399 459 40,000  Level Indianapolis Center
05:19PM 37.9272 -87.7681 211° Southwest 402 463 40,000  Level Indianapolis Center
05:21PM 37.7717 -87.9936 229° Southwest 394 453 40,000  Level Memphis Center
05:22PM 37.6967 -88.0953 227° Southwest 394 453 40,000  Level Memphis Center
05:23PM 37.6256 -88.2022 230° Southwest 394 453 40,000  Level Memphis Center
05:24PM 37.5472 -88.3122 228° Southwest 397 457 40,000  Level Indianapolis Center
05:25PM 37.4792 -88.4125 229° Southwest 394 453 40,000  Level Memphis Center
05:26PM 37.4078 -88.5161 229° Southwest 394 453 40,000  Level Memphis Center
05:27PM 37.3344 -88.6222 229° Southwest 399 459 40,000  Level Memphis Center
05:28PM 37.2586 -88.7256 227° Southwest 399 459 40,000  Level Memphis Center
05:29PM 37.1850 -88.8311 229° Southwest 399 459 40,000  Level Memphis Center
05:30PM 37.1111 -88.9342 228° Southwest 399 459 40,000  Level Memphis Center
05:31PM 37.0372 -89.0367 228° Southwest 399 459 40,000  Level Memphis Center
05:32PM 36.9656 -89.1392 229° Southwest 399 459 40,000  Level Memphis Center
05:33PM 36.8936 -89.2414 229° Southwest 399 459 40,000  Level Memphis Center
05:34PM 36.8194 -89.3436 228° Southwest 399 459 40,000  Level Memphis Center
05:35PM 36.7472 -89.4481 229° Southwest 399 459 40,000  Level Memphis Center
05:36PM 36.6728 -89.5497 228° Southwest 399 459 40,000  Level Memphis Center
05:37PM 36.5986 -89.6539 228° Southwest 399 459 40,000  Level Memphis Center
05:38PM 36.5219 -89.7553 227° Southwest 399 459 40,000  Level Memphis Center
05:39PM 36.4453 -89.8564 227° Southwest 394 453 40,000  Level Memphis Center
05:40PM 36.3686 -89.9625 228° Southwest 400 460 40,000 300 Level Memphis Center
05:41PM 36.2936 -90.0608 227° Southwest 400 460 40,700 840 Climbing Memphis Center
05:42PM 36.2211 -90.1589 228° Southwest 395 455 41,700 900 Climbing Memphis Center
05:43PM 36.1481 -90.2542 226° Southwest 395 455 42,500 600 Climbing Memphis Center
05:44PM 36.0772 -90.3519 228° Southwest 395 455 42,900 240 Climbing Memphis Center
05:45PM 36.0042 -90.4467 226° Southwest 395 455 43,000  Climbing Memphis Center
05:46PM 35.9292 -90.5467 227° Southwest 395 455 43,000  Level Memphis Center
05:47PM 35.8558 -90.6464 228° Southwest 395 455 43,000  Level Memphis Center
05:48PM 35.7764 -90.7486 226° Southwest 400 460 43,000  Level Memphis Center
05:49PM 35.6989 -90.8531 228° Southwest 400 460 43,000  Level Memphis Center
05:50PM 35.6275 -90.9572 230° Southwest 406 467 43,000  Level Memphis Center
05:51PM 35.5478 -91.0614 227° Southwest 415 478 43,000  Level Memphis Center
05:52PM 35.4700 -91.1628 227° Southwest 415 478 43,000  Level Memphis Center
05:53PM 35.3858 -91.2661 225° Southwest 423 487 43,000  Level Memphis Center
05:54PM 35.3058 -91.3697 227° Southwest 423 487 43,000  Level Memphis Center
05:55PM 35.2256 -91.4703 226° Southwest 423 487 43,000  Level Memphis Center
05:56PM 35.1453 -91.5786 228° Southwest 423 487 43,000  Level Memphis Center
05:57PM 35.0650 -91.6814 226° Southwest 423 487 43,000  Level Memphis Center
05:58PM 34.9825 -91.7842 226° Southwest 423 487 43,000  Level Memphis Center
05:59PM 34.9042 -91.8892 228° Southwest 423 487 43,000  Level Memphis Center
06:00PM 34.8236 -91.9914 226° Southwest 423 487 43,000  Level Memphis Center
06:01PM 34.7408 -92.0983 227° Southwest 423 487 43,000  Level Memphis Center
06:02PM 34.6722 -92.2106 233° Southwest 423 487 43,000  Level Memphis Center
06:03PM 34.6347 -92.3436 251° West 414 476 43,000  Level Memphis Center
06:04PM 34.5972 -92.4764 251° West 420 483 43,000  Level Memphis Center
06:05PM 34.5614 -92.6117 252° West 420 483 43,000  Level Memphis Center
06:06PM 34.5256 -92.7444 252° West 420 483 43,000  Level Memphis Center
06:07PM 34.4897 -92.8769 252° West 420 483 43,000  Level Memphis Center
06:08PM 34.4578 -93.0094 254° West 420 483 43,000  Level Memphis Center
06:09PM 34.4239 -93.1267 251° West 420 483 43,000  Level Memphis Center
06:10PM 34.3872 -93.2617 252° West 420 483 43,000  Level Memphis Center
06:11PM 34.3508 -93.3936 252° West 420 483 43,000  Level Memphis Center
06:12PM 34.3161 -93.5256 252° West 420 483 43,000  Level Memphis Center
06:12PM 34.2956 -93.6178 255° West 417 480 43,000  Level Fort Worth Center
06:13PM 34.2597 -93.7475 252° West 411 473 43,000  Level Fort Worth Center
06:14PM 34.2236 -93.8769 251° West 411 473 43,000  Level Fort Worth Center
06:15PM 34.1878 -94.0064 252° West 411 473 43,000  Level Fort Worth Center
06:16PM 34.1514 -94.1358 251° West 411 473 43,000 -600 Level Fort Worth Center
06:17PM 34.1153 -94.2678 252° West 411 473 41,800 -1,380 Descending Fort Worth Center
06:18PM 34.0786 -94.3969 251° West 411 473 40,300 -1,500 Descending Fort Worth Center
06:19PM 34.0589 -94.5306 260° West 404 465 38,900 -1,500 Descending Fort Worth Center
06:20PM 34.0492 -94.6586 265° West 404 465 37,400 -1,500 Descending Fort Worth Center
06:21PM 34.0356 -94.7944 263° West 404 465 35,900 -1,500 Descending Fort Worth Center
06:22PM 34.0236 -94.9300 264° West 410 472 34,400 -1,500 Descending Fort Worth Center
06:23PM 34.0117 -95.0708 264° West 410 472 32,900 -1,560 Descending Fort Worth Center
06:24PM 33.9975 -95.2114 263° West 421 484 31,300 -1,560 Descending Fort Worth Center
06:25PM 33.9853 -95.3519 264° West 427 491 29,800 -1,500 Descending Fort Worth Center
06:26PM 33.9731 -95.4950 264° West 427 491 28,300 -1,500 Descending Fort Worth Center
06:27PM 33.9603 -95.6306 264° West 420 483 26,800 -1,500 Descending Fort Worth Center
06:28PM 33.9308 -95.7639 255° West 420 483 25,300 -1,620 Descending Fort Worth Center
06:29PM 33.8167 -95.7961 193° South 358 412 23,700 -2,040 Descending Fort Worth Center
06:30PM 33.7100 -95.7981 181° South 358 412 21,300 -2,400 Descending Fort Worth Center
06:31PM 33.6058 -95.8047 183° South 358 412 18,900 -2,460 Descending Fort Worth Center
06:32PM 33.5119 -95.8114 183° South 358 412 16,400 -2,520 Descending Fort Worth Center
06:34PM 33.3883 -95.9431 222° Southwest 296 341 11,500 -2,400 Descending Fort Worth Center
06:35PM 33.3728 -96.0378 259° West 280 322 9,200 -1,320 Descending Fort Worth Center
06:36PM 33.3425 -96.1228 247° West 280 322 8,900 -120 Descending Fort Worth Center
06:37PM 33.3119 -96.2028 245° Southwest 280 322 9,000  Climbing Fort Worth Center
06:38PM 33.2792 -96.2903 246° West 280 322 9,000 -240 Level Fort Worth Center
06:39PM 33.2403 -96.3728 241° Southwest 280 322 8,600 -1,080 Descending Fort Worth Center
06:40PM 33.2000 -96.4500 238° Southwest 275 316 7,000 -1,680 Descending Dallas / Fort Worth TRACON
06:41PM 33.1667 -96.5167 239° Southwest 253 291 5,600 -1,440 Descending Dallas / Fort Worth TRACON
06:42PM 33.1333 -96.5833 239° Southwest 248 285 4,400 -900 Descending Dallas / Fort Worth TRACON
06:43PM 33.1000 -96.6500 239° Southwest 258 297 4,000 -240 Descending Dallas / Fort Worth TRACON
06:44PM 33.0500 -96.7167 228° Southwest 262 302 4,000 -480 Level Dallas / Fort Worth TRACON
06:45PM 33.0000 -96.7833 228° Southwest 198 228 3,000 -540 Descending Dallas / Fort Worth TRACON
06:46PM 32.9667 -96.8167 220° Southwest 199 229 3,000 -420 Level Dallas / Fort Worth TRACON
06:47PM 32.9333 -96.8833 239° Southwest 204 235 2,200 -780 Descending Dallas / Fort Worth TRACON
06:48PM 32.9000 -96.9000 203° Southwest 149 171 1,500 -720 Descending Dallas / Fort Worth TRACON
06:49PM 32.8667 -96.8667 140° Southeast 110 127 900 -600 Descending Dallas / Fort Worth TRACON
06:52PM 32.8471 -96.8518 140° Southeast  Level Estimated